createdAt,value
2017-07-04T00:00:48.605Z,19.72
2017-07-04T00:01:48.639Z,19.73
2017-07-04T00:02:48.684Z,19.76
2017-07-04T00:03:48.719Z,19.69
2017-07-04T00:04:48.760Z,19.7
2017-07-04T00:05:48.807Z,19.69
2017-07-04T00:06:48.843Z,19.68
2017-07-04T00:07:48.878Z,19.79
2017-07-04T00:08:49.235Z,19.68
2017-07-04T00:09:48.961Z,19.73
2017-07-04T00:10:49.000Z,19.69
2017-07-04T00:11:49.045Z,19.7
2017-07-04T00:12:49.083Z,19.68
2017-07-04T00:13:49.120Z,19.66
2017-07-04T00:14:49.166Z,19.69
2017-07-04T00:15:49.200Z,19.7
2017-07-04T00:16:49.245Z,19.7
2017-07-04T00:17:49.282Z,19.73
2017-07-04T00:18:49.324Z,19.65
2017-07-04T00:19:49.365Z,19.65
2017-07-04T00:20:49.402Z,19.69
2017-07-04T00:21:49.445Z,19.61
2017-07-04T00:22:49.483Z,19.68
2017-07-04T00:23:49.836Z,19.58
2017-07-04T00:24:49.563Z,19.61
2017-07-04T00:25:49.606Z,19.65
2017-07-04T00:26:49.644Z,19.66
2017-07-04T00:27:49.682Z,19.58
2017-07-04T00:28:49.723Z,19.53
2017-07-04T00:29:49.765Z,19.53
2017-07-04T00:30:49.801Z,19.57
2017-07-04T00:31:49.845Z,19.43
2017-07-04T00:32:49.881Z,19.51
2017-07-04T00:33:49.926Z,19.58
2017-07-04T00:34:49.964Z,19.42
2017-07-04T00:35:50.005Z,19.51
2017-07-04T00:36:50.047Z,19.43
2017-07-04T00:37:50.082Z,19.43
2017-07-04T00:38:50.125Z,19.48
2017-07-04T00:39:50.165Z,19.42
2017-07-04T00:40:50.205Z,19.43
2017-07-04T00:41:50.240Z,19.46
2017-07-04T00:42:50.288Z,19.46
2017-07-04T00:43:50.323Z,19.4
2017-07-04T00:44:50.365Z,19.38
2017-07-04T00:45:50.405Z,19.36
2017-07-04T00:46:50.444Z,19.38
2017-07-04T00:47:50.486Z,19.39
2017-07-04T00:48:50.524Z,19.38
2017-07-04T00:49:50.564Z,19.36
2017-07-04T00:50:50.601Z,19.39
2017-07-04T00:51:50.646Z,19.38
2017-07-04T00:52:50.681Z,19.4
2017-07-04T00:53:50.726Z,19.38
2017-07-04T00:54:51.077Z,19.35
2017-07-04T00:55:50.803Z,19.31
2017-07-04T00:56:50.847Z,19.46
2017-07-04T00:57:50.884Z,19.33
2017-07-04T00:58:50.923Z,19.38
2017-07-04T00:59:50.965Z,19.33
2017-07-04T01:00:51.003Z,19.35
2017-07-04T01:01:51.047Z,19.42
2017-07-04T01:02:51.083Z,19.39
2017-07-04T01:03:51.124Z,19.33
2017-07-04T01:04:51.164Z,19.42
2017-07-04T01:05:51.203Z,19.33
2017-07-04T01:06:51.238Z,19.33
2017-07-04T01:07:51.286Z,19.29
2017-07-04T01:08:51.325Z,19.33
2017-07-04T01:09:51.363Z,19.25
2017-07-04T01:10:51.403Z,19.38
2017-07-04T01:11:51.449Z,19.29
2017-07-04T01:12:51.482Z,19.35
2017-07-04T01:13:51.523Z,19.35
2017-07-04T01:14:51.564Z,19.28
2017-07-04T01:15:51.599Z,19.31
2017-07-04T01:16:51.644Z,19.29
2017-07-04T01:17:51.686Z,19.35
2017-07-04T01:18:51.728Z,19.35
2017-07-04T01:19:51.758Z,19.33
2017-07-04T01:20:51.813Z,19.36
2017-07-04T01:21:51.842Z,19.24
2017-07-04T01:22:51.884Z,19.28
2017-07-04T01:23:51.918Z,19.32
2017-07-04T01:24:51.958Z,19.25
2017-07-04T01:25:51.999Z,19.32
2017-07-04T01:26:52.039Z,19.14
2017-07-04T01:27:52.081Z,19.13
2017-07-04T01:28:52.121Z,19.28
2017-07-04T01:29:52.159Z,19.35
2017-07-04T01:30:52.204Z,19.21
2017-07-04T01:31:52.241Z,19.18
2017-07-04T01:32:52.277Z,19.2
2017-07-04T01:33:52.322Z,19.23
2017-07-04T01:34:52.357Z,19.21
2017-07-04T01:35:52.398Z,19.29
2017-07-04T01:36:52.485Z,19.23
2017-07-04T01:37:52.476Z,19.28
2017-07-04T01:38:52.517Z,19.23
2017-07-04T01:39:52.556Z,19.17
2017-07-04T01:40:52.599Z,19.2
2017-07-04T01:41:52.640Z,19.31
2017-07-04T01:42:52.674Z,19.24
2017-07-04T01:43:53.036Z,19.17
2017-07-04T01:44:52.759Z,19.28
2017-07-04T01:45:52.795Z,19.1
2017-07-04T01:46:52.835Z,19.18
2017-07-04T01:47:52.876Z,19.2
2017-07-04T01:48:52.919Z,19.23
2017-07-04T01:49:52.952Z,19.18
2017-07-04T01:50:53.000Z,19.18
2017-07-04T01:51:53.034Z,19.17
2017-07-04T01:52:53.080Z,19.08
2017-07-04T01:53:53.118Z,19.15
2017-07-04T01:54:53.158Z,19.06
2017-07-04T01:55:53.196Z,19.06
2017-07-04T01:56:53.235Z,19.18
2017-07-04T01:57:53.276Z,19.05
2017-07-04T01:58:53.313Z,19.18
2017-07-04T01:59:53.358Z,19.14
2017-07-04T02:00:53.392Z,19.14
2017-07-04T02:01:53.437Z,19.06
2017-07-04T02:02:53.477Z,19.11
2017-07-04T02:03:53.511Z,19.1
2017-07-04T02:04:53.551Z,19.11
2017-07-04T02:05:53.593Z,19.1
2017-07-04T02:06:53.635Z,19.01
2017-07-04T02:07:53.674Z,19.1
2017-07-04T02:08:53.712Z,19.02
2017-07-04T02:09:53.759Z,19.05
2017-07-04T02:10:53.793Z,19.01
2017-07-04T02:11:53.831Z,18.97
2017-07-04T02:12:53.873Z,18.99
2017-07-04T02:13:53.913Z,18.99
2017-07-04T02:14:53.956Z,19.02
2017-07-04T02:15:53.993Z,19.06
2017-07-04T02:16:54.033Z,19.13
2017-07-04T02:17:54.068Z,19.01
2017-07-04T02:18:54.111Z,19.08
2017-07-04T02:19:54.149Z,19.06
2017-07-04T02:20:54.189Z,19.01
2017-07-04T02:21:54.224Z,19.06
2017-07-04T02:22:54.268Z,19.01
2017-07-04T02:23:54.304Z,19.08
2017-07-04T02:24:54.347Z,18.98
2017-07-04T02:25:54.389Z,19.06
2017-07-04T02:26:54.427Z,18.98
2017-07-04T02:27:54.468Z,18.94
2017-07-04T02:28:54.510Z,18.84
2017-07-04T02:29:54.544Z,18.94
2017-07-04T02:30:54.587Z,18.95
2017-07-04T02:31:54.629Z,18.87
2017-07-04T02:32:54.668Z,18.82
2017-07-04T02:33:54.703Z,18.87
2017-07-04T02:34:54.747Z,18.83
2017-07-04T02:35:54.783Z,18.87
2017-07-04T02:36:54.824Z,18.9
2017-07-04T02:37:54.866Z,18.84
2017-07-04T02:38:54.904Z,18.84
2017-07-04T02:39:54.948Z,18.84
2017-07-04T02:40:54.981Z,18.86
2017-07-04T02:41:55.024Z,18.84
2017-07-04T02:42:55.062Z,18.86
2017-07-04T02:43:55.100Z,18.86
2017-07-04T02:44:55.141Z,18.9
2017-07-04T02:45:55.184Z,18.84
2017-07-04T02:46:55.225Z,18.8
2017-07-04T02:47:55.258Z,18.82
2017-07-04T02:48:55.298Z,18.86
2017-07-04T02:49:55.338Z,18.65
2017-07-04T02:50:55.381Z,18.8
2017-07-04T02:51:55.424Z,18.73
2017-07-04T02:52:55.457Z,18.72
2017-07-04T02:53:55.509Z,18.73
2017-07-04T02:54:55.538Z,18.68
2017-07-04T02:55:55.582Z,18.74
2017-07-04T02:56:55.622Z,18.74
2017-07-04T02:57:55.659Z,18.68
2017-07-04T02:58:55.696Z,18.73
2017-07-04T02:59:55.740Z,18.73
2017-07-04T03:00:55.778Z,18.77
2017-07-04T03:01:55.817Z,18.76
2017-07-04T03:02:55.856Z,18.67
2017-07-04T03:03:55.901Z,18.72
2017-07-04T03:04:55.933Z,18.73
2017-07-04T03:05:55.975Z,18.79
2017-07-04T03:06:56.017Z,18.84
2017-07-04T03:07:56.056Z,18.84
2017-07-04T03:08:56.102Z,18.82
2017-07-04T03:09:56.132Z,18.7
2017-07-04T03:10:56.175Z,18.7
2017-07-04T03:11:56.209Z,18.73
2017-07-04T03:12:56.253Z,18.72
2017-07-04T03:13:56.291Z,18.68
2017-07-04T03:14:56.330Z,18.83
2017-07-04T03:15:56.371Z,18.7
2017-07-04T03:16:56.408Z,18.68
2017-07-04T03:17:56.455Z,18.73
2017-07-04T03:18:56.493Z,18.74
2017-07-04T03:19:56.531Z,18.61
2017-07-04T03:20:56.567Z,18.68
2017-07-04T03:21:56.611Z,18.76
2017-07-04T03:22:56.646Z,18.64
2017-07-04T03:23:56.685Z,18.61
2017-07-04T03:24:56.726Z,18.74
2017-07-04T03:25:56.763Z,18.76
2017-07-04T03:26:56.809Z,18.64
2017-07-04T03:27:56.844Z,18.73
2017-07-04T03:28:56.886Z,18.74
2017-07-04T03:29:56.928Z,18.68
2017-07-04T03:30:56.963Z,18.67
2017-07-04T03:31:57.002Z,18.61
2017-07-04T03:32:57.041Z,18.64
2017-07-04T03:33:57.087Z,18.64
2017-07-04T03:34:57.122Z,18.65
2017-07-04T03:35:57.166Z,18.64
2017-07-04T03:36:57.204Z,18.7
2017-07-04T03:37:57.241Z,18.59
2017-07-04T03:38:57.282Z,18.5
2017-07-04T03:39:57.364Z,18.61
2017-07-04T03:40:57.358Z,18.5
2017-07-04T03:41:57.403Z,18.43
2017-07-04T03:42:57.441Z,18.57
2017-07-04T03:43:57.479Z,18.46
2017-07-04T03:44:57.522Z,18.52
2017-07-04T03:45:57.691Z,18.39
2017-07-04T03:46:57.593Z,18.42
2017-07-04T03:47:57.635Z,18.37
2017-07-04T03:48:57.683Z,18.34
2017-07-04T03:49:57.712Z,18.37
2017-07-04T03:50:57.756Z,18.36
2017-07-04T03:51:57.792Z,18.34
2017-07-04T03:52:57.833Z,18.33
2017-07-04T03:53:57.873Z,18.34
2017-07-04T03:54:57.915Z,18.34
2017-07-04T03:55:57.949Z,18.33
2017-07-04T03:56:57.995Z,18.27
2017-07-04T03:57:58.032Z,18.39
2017-07-04T03:58:58.073Z,18.37
2017-07-04T03:59:58.111Z,18.31
2017-07-04T04:00:58.153Z,18.39
2017-07-04T04:01:58.187Z,18.34
2017-07-04T04:02:58.231Z,18.37
2017-07-04T04:03:58.271Z,18.37
2017-07-04T04:04:58.309Z,18.33
2017-07-04T04:05:58.349Z,18.36
2017-07-04T04:06:58.388Z,18.37
2017-07-04T04:07:58.425Z,18.37
2017-07-04T04:08:58.465Z,18.39
2017-07-04T04:09:58.824Z,18.43
2017-07-04T04:10:58.546Z,18.44
2017-07-04T04:11:58.583Z,18.42
2017-07-04T04:12:58.625Z,18.43
2017-07-04T04:13:58.668Z,18.42
2017-07-04T04:14:58.703Z,18.43
2017-07-04T04:15:58.743Z,18.43
2017-07-04T04:16:58.784Z,18.39
2017-07-04T04:17:58.823Z,18.33
2017-07-04T04:18:58.859Z,18.31
2017-07-04T04:19:58.898Z,18.39
2017-07-04T04:20:58.940Z,18.39
2017-07-04T04:21:58.977Z,18.36
2017-07-04T04:22:59.023Z,18.33
2017-07-04T04:23:59.057Z,18.31
2017-07-04T04:24:59.097Z,18.37
2017-07-04T04:25:59.135Z,18.43
2017-07-04T04:26:59.179Z,18.33
2017-07-04T04:27:59.219Z,18.39
2017-07-04T04:28:59.254Z,18.31
2017-07-04T04:29:59.301Z,18.4
2017-07-04T04:30:59.336Z,18.36
2017-07-04T04:31:59.373Z,18.36
2017-07-04T04:32:59.417Z,18.42
2017-07-04T04:33:59.451Z,18.49
2017-07-04T04:34:59.494Z,18.47
2017-07-04T04:35:59.535Z,18.5
2017-07-04T04:36:59.575Z,18.44
2017-07-04T04:37:59.611Z,18.46
2017-07-04T04:38:59.654Z,18.44
2017-07-04T04:39:59.689Z,18.47
2017-07-04T04:40:59.733Z,18.61
2017-07-04T04:41:59.769Z,18.61
2017-07-04T04:42:59.812Z,18.61
2017-07-04T04:43:59.848Z,18.67
2017-07-04T04:44:59.895Z,18.72
2017-07-04T04:45:59.931Z,18.73
2017-07-04T04:46:59.969Z,18.77
2017-07-04T04:48:00.011Z,18.86
2017-07-04T04:49:00.051Z,18.86
2017-07-04T04:50:00.086Z,18.92
2017-07-04T04:51:00.130Z,19.08
2017-07-04T04:52:00.168Z,18.99
2017-07-04T04:53:00.210Z,18.97
2017-07-04T04:54:00.247Z,19.06
2017-07-04T04:55:00.289Z,19.02
2017-07-04T04:56:00.329Z,18.98
2017-07-04T04:57:00.366Z,19.02
2017-07-04T04:58:00.408Z,18.95
2017-07-04T04:59:00.444Z,18.97
2017-07-04T05:00:00.485Z,18.92
2017-07-04T05:01:00.526Z,18.87
2017-07-04T05:02:00.568Z,18.91
2017-07-04T05:03:00.766Z,18.73
2017-07-04T05:04:00.643Z,18.77
2017-07-04T05:05:00.691Z,18.68
2017-07-04T05:06:00.727Z,18.72
2017-07-04T05:07:00.767Z,18.76
2017-07-04T05:08:00.801Z,18.73
2017-07-04T05:09:00.843Z,18.7
2017-07-04T05:10:00.886Z,18.79
2017-07-04T05:11:00.923Z,18.67
2017-07-04T05:12:00.964Z,18.74
2017-07-04T05:13:01.007Z,18.74
2017-07-04T05:14:01.040Z,18.67
2017-07-04T05:15:01.086Z,18.73
2017-07-04T05:16:01.122Z,18.72
2017-07-04T05:17:01.163Z,18.68
2017-07-04T05:18:01.206Z,18.74
2017-07-04T05:19:01.245Z,18.72
2017-07-04T05:20:01.282Z,18.7
2017-07-04T05:21:01.320Z,18.61
2017-07-04T05:22:01.369Z,18.64
2017-07-04T05:23:01.400Z,18.65
2017-07-04T05:24:01.442Z,18.67
2017-07-04T05:25:01.478Z,18.64
2017-07-04T05:26:01.523Z,18.58
2017-07-04T05:27:01.559Z,18.62
2017-07-04T05:28:01.599Z,18.65
2017-07-04T05:29:01.641Z,18.57
2017-07-04T05:30:01.682Z,18.67
2017-07-04T05:31:01.718Z,18.68
2017-07-04T05:32:01.773Z,18.61
2017-07-04T05:33:01.801Z,18.67
2017-07-04T05:34:01.850Z,18.62
2017-07-04T05:35:01.875Z,18.65
2017-07-04T05:36:01.919Z,18.73
2017-07-04T05:37:01.960Z,18.77
2017-07-04T05:38:02.028Z,18.67
2017-07-04T05:39:02.040Z,18.74
2017-07-04T05:40:02.073Z,18.8
2017-07-04T05:41:02.117Z,18.8
2017-07-04T05:42:02.158Z,18.77
2017-07-04T05:43:02.192Z,18.8
2017-07-04T05:44:02.557Z,18.86
2017-07-04T05:45:02.273Z,18.84
2017-07-04T05:46:02.313Z,18.86
2017-07-04T05:47:02.359Z,18.84
2017-07-04T05:48:02.400Z,18.97
2017-07-04T05:49:02.433Z,18.97
2017-07-04T05:50:02.485Z,19.17
2017-07-04T05:51:02.517Z,19.17
2017-07-04T05:52:02.559Z,19.33
2017-07-04T05:53:02.597Z,19.54
2017-07-04T05:54:02.633Z,19.73
2017-07-04T05:55:02.679Z,20.43
2017-07-04T05:56:02.714Z,21.38
2017-07-04T05:57:02.758Z,22.27
2017-07-04T05:58:02.795Z,22.99
2017-07-04T05:59:02.850Z,23.89
2017-07-04T06:00:02.882Z,24.68
2017-07-04T06:01:02.927Z,25.19
2017-07-04T06:02:03.063Z,25.35
2017-07-04T06:03:03.012Z,25.39
2017-07-04T06:04:03.058Z,25.46
2017-07-04T06:05:03.201Z,25.5
2017-07-04T06:06:03.142Z,25.49
2017-07-04T06:07:03.187Z,25.65
2017-07-04T06:08:03.227Z,26.05
2017-07-04T06:09:03.270Z,26.62
2017-07-04T06:10:03.315Z,27.43
2017-07-04T06:11:03.364Z,28.11
2017-07-04T06:12:03.477Z,29.03
2017-07-04T06:13:03.452Z,29.78
2017-07-04T06:14:03.498Z,30.61
2017-07-04T06:15:03.544Z,31.38
2017-07-04T06:16:03.596Z,31.96
2017-07-04T06:17:03.642Z,32.54
2017-07-04T06:18:03.692Z,32.85
2017-07-04T06:19:03.748Z,32.86
2017-07-04T06:20:03.786Z,32.58
2017-07-04T06:21:03.833Z,32.05
2017-07-04T06:22:03.884Z,31.35
2017-07-04T06:23:03.932Z,30.49
2017-07-04T06:24:03.978Z,29.68
2017-07-04T06:25:04.025Z,29.01
2017-07-04T06:26:04.074Z,28.29
2017-07-04T06:27:04.123Z,27.8
2017-07-04T06:28:04.169Z,27.24
2017-07-04T06:29:04.215Z,26.87
2017-07-04T06:30:04.258Z,26.72
2017-07-04T06:31:04.304Z,26.72
2017-07-04T06:32:04.349Z,26.73
2017-07-04T06:33:04.400Z,26.64
2017-07-04T06:34:04.443Z,26.57
2017-07-04T06:35:04.486Z,26.47
2017-07-04T06:36:04.534Z,26.25
2017-07-04T06:37:04.581Z,26.22
2017-07-04T06:38:04.620Z,26.27
2017-07-04T06:39:04.671Z,26.09
2017-07-04T06:40:04.716Z,26.09
2017-07-04T06:41:04.758Z,25.9
2017-07-04T06:42:04.808Z,25.64
2017-07-04T06:43:04.853Z,25.39
2017-07-04T06:44:04.904Z,25.24
2017-07-04T06:45:04.936Z,25.07
2017-07-04T06:46:04.983Z,25.02
2017-07-04T06:47:05.032Z,24.85
2017-07-04T06:48:05.073Z,24.75
2017-07-04T06:49:05.117Z,24.56
2017-07-04T06:50:05.160Z,24.37
2017-07-04T06:51:05.208Z,24.22
2017-07-04T06:52:05.248Z,24.23
2017-07-04T06:53:05.289Z,24.13
2017-07-04T06:54:05.337Z,24.05
2017-07-04T06:55:05.383Z,23.95
2017-07-04T06:56:05.422Z,23.92
2017-07-04T06:57:05.468Z,23.85
2017-07-04T06:58:05.514Z,23.76
2017-07-04T06:59:05.554Z,23.87
2017-07-04T07:00:05.596Z,24.31
2017-07-04T07:01:05.645Z,24.97
2017-07-04T07:02:05.685Z,25.32
2017-07-04T07:03:05.730Z,25.8
2017-07-04T07:04:05.787Z,26.36
2017-07-04T07:05:05.823Z,26.67
2017-07-04T07:06:05.869Z,27.17
2017-07-04T07:07:05.917Z,27.53
2017-07-04T07:08:05.955Z,27.85
2017-07-04T07:09:06.002Z,28.31
2017-07-04T07:10:06.047Z,28.66
2017-07-04T07:11:06.097Z,29.22
2017-07-04T07:12:06.147Z,29.97
2017-07-04T07:13:06.187Z,30.84
2017-07-04T07:14:06.240Z,31.53
2017-07-04T07:15:06.290Z,32.03
2017-07-04T07:16:06.341Z,32.35
2017-07-04T07:17:06.384Z,32.64
2017-07-04T07:18:06.436Z,33.07
2017-07-04T07:19:06.483Z,33.45
2017-07-04T07:20:06.537Z,33.98
2017-07-04T07:21:06.583Z,34.44
2017-07-04T07:22:06.638Z,34.61
2017-07-04T07:23:06.693Z,34.69
2017-07-04T07:24:06.743Z,34.53
2017-07-04T07:25:06.791Z,34.2
2017-07-04T07:26:06.840Z,33.79
2017-07-04T07:27:06.894Z,33.3
2017-07-04T07:28:06.943Z,33.17
2017-07-04T07:29:06.995Z,33.19
2017-07-04T07:30:07.038Z,33.04
2017-07-04T07:31:07.095Z,32.77
2017-07-04T07:32:07.141Z,32.48
2017-07-04T07:33:07.193Z,31.96
2017-07-04T07:34:07.243Z,31.57
2017-07-04T07:35:07.291Z,31.18
2017-07-04T07:36:07.339Z,30.94
2017-07-04T07:37:07.389Z,30.57
2017-07-04T07:38:07.435Z,30.11
2017-07-04T07:39:07.487Z,29.89
2017-07-04T07:40:07.536Z,29.52
2017-07-04T07:41:07.583Z,29.16
2017-07-04T07:42:07.627Z,28.78
2017-07-04T07:43:07.679Z,28.23
2017-07-04T07:44:07.719Z,27.79
2017-07-04T07:45:07.769Z,27.38
2017-07-04T07:46:07.816Z,26.94
2017-07-04T07:47:07.866Z,26.62
2017-07-04T07:48:07.907Z,26.44
2017-07-04T07:49:07.959Z,26.2
2017-07-04T07:50:08.000Z,26.11
2017-07-04T07:51:08.043Z,25.98
2017-07-04T07:52:08.088Z,25.8
2017-07-04T07:53:08.136Z,25.52
2017-07-04T07:54:10.684Z,25.46
2017-07-04T07:55:08.225Z,25.56
2017-07-04T07:56:08.272Z,25.54
2017-07-04T07:57:08.312Z,25.54
2017-07-04T07:58:08.366Z,25.56
2017-07-04T07:59:08.416Z,25.44
2017-07-04T08:00:10.753Z,25.49
2017-07-04T08:01:08.490Z,25.27
2017-07-04T08:02:08.533Z,25.25
2017-07-04T08:03:08.579Z,25.17
2017-07-04T08:04:08.624Z,25.12
2017-07-04T08:05:08.667Z,25.62
2017-07-04T08:06:08.710Z,26.39
2017-07-04T08:07:08.765Z,27.32
2017-07-04T08:08:08.804Z,28.44
2017-07-04T08:09:08.848Z,29.25
2017-07-04T08:10:08.901Z,30.09
2017-07-04T08:11:08.949Z,30.69
2017-07-04T08:12:08.993Z,31.24
2017-07-04T08:13:09.041Z,31.24
2017-07-04T08:14:09.098Z,31.2
2017-07-04T08:15:09.141Z,31.05
2017-07-04T08:16:09.183Z,30.49
2017-07-04T08:17:09.238Z,29.99
2017-07-04T08:18:09.334Z,29.56
2017-07-04T08:19:09.341Z,29.19
2017-07-04T08:20:09.376Z,28.54
2017-07-04T08:21:09.419Z,28.09
2017-07-04T08:22:09.476Z,27.66
2017-07-04T08:23:09.515Z,27.32
2017-07-04T08:24:09.558Z,26.98
2017-07-04T08:25:09.604Z,26.69
2017-07-04T08:26:09.659Z,26.49
2017-07-04T08:27:09.698Z,26.42
2017-07-04T08:28:09.739Z,26.4
2017-07-04T08:29:09.801Z,26.54
2017-07-04T08:30:09.831Z,26.47
2017-07-04T08:31:09.878Z,26.31
2017-07-04T08:32:09.920Z,25.99
2017-07-04T08:33:09.971Z,25.9
2017-07-04T08:34:10.013Z,25.61
2017-07-04T08:35:10.058Z,25.39
2017-07-04T08:36:10.107Z,25.1
2017-07-04T08:37:10.148Z,25.06
2017-07-04T08:38:10.193Z,24.92
2017-07-04T08:39:10.239Z,25.05
2017-07-04T08:40:10.284Z,25.44
2017-07-04T08:41:10.321Z,26.08
2017-07-04T08:42:10.379Z,26.73
2017-07-04T08:43:10.414Z,27.26
2017-07-04T08:44:10.498Z,27.58
2017-07-04T08:45:10.509Z,28.07
2017-07-04T08:46:10.562Z,28.54
2017-07-04T08:47:10.595Z,29.16
2017-07-04T08:48:10.649Z,29.74
2017-07-04T08:49:10.690Z,29.93
2017-07-04T08:50:10.746Z,30.16
2017-07-04T08:51:10.789Z,30.08
2017-07-04T08:52:10.844Z,30.02
2017-07-04T08:53:10.882Z,29.84
2017-07-04T08:54:10.930Z,29.7
2017-07-04T08:55:10.976Z,29.63
2017-07-04T08:56:11.023Z,29.57
2017-07-04T08:57:11.070Z,29.6
2017-07-04T08:58:11.121Z,29.93
2017-07-04T08:59:11.169Z,29.94
2017-07-04T09:00:11.215Z,30.03
2017-07-04T09:01:11.267Z,29.75
2017-07-04T09:02:11.312Z,29.71
2017-07-04T09:03:11.361Z,29.53
2017-07-04T09:04:11.404Z,29.5
2017-07-04T09:05:11.458Z,29.62
2017-07-04T09:06:11.506Z,29.92
2017-07-04T09:07:11.553Z,30.11
2017-07-04T09:08:11.599Z,30.31
2017-07-04T09:09:11.649Z,30.3
2017-07-04T09:10:11.697Z,30.4
2017-07-04T09:11:11.743Z,30.05
2017-07-04T09:12:14.094Z,29.86
2017-07-04T09:13:14.036Z,29.63
2017-07-04T09:14:11.889Z,29.43
2017-07-04T09:15:11.938Z,29.13
2017-07-04T09:16:11.984Z,29.01
2017-07-04T09:17:12.036Z,28.81
2017-07-04T09:18:12.081Z,28.78
2017-07-04T09:19:12.129Z,28.97
2017-07-04T09:20:12.172Z,29.18
2017-07-04T09:21:12.224Z,29.66
2017-07-04T09:22:12.269Z,30.08
2017-07-04T09:23:12.323Z,30.46
2017-07-04T09:24:12.371Z,30.8
2017-07-04T09:25:12.417Z,31.15
2017-07-04T09:26:12.466Z,31.43
2017-07-04T09:27:12.518Z,31.82
2017-07-04T09:28:12.571Z,32.22
2017-07-04T09:29:12.622Z,32.51
2017-07-04T09:30:12.678Z,32.8
2017-07-04T09:31:12.725Z,33.11
2017-07-04T09:32:12.777Z,33.3
2017-07-04T09:33:12.832Z,33.57
2017-07-04T09:34:12.886Z,33.61
2017-07-04T09:35:12.936Z,33.67
2017-07-04T09:36:12.996Z,33.86
2017-07-04T09:37:13.048Z,33.74
2017-07-04T09:38:13.095Z,33.57
2017-07-04T09:39:13.150Z,33.53
2017-07-04T09:40:13.204Z,33.37
2017-07-04T09:41:13.261Z,33.2
2017-07-04T09:42:13.313Z,32.86
2017-07-04T09:43:13.366Z,32.42
2017-07-04T09:44:13.419Z,31.96
2017-07-04T09:45:13.470Z,31.42
2017-07-04T09:46:13.534Z,30.87
2017-07-04T09:47:13.580Z,30.31
2017-07-04T09:48:13.626Z,29.93
2017-07-04T09:49:13.674Z,29.7
2017-07-04T09:50:13.728Z,29.71
2017-07-04T09:51:13.782Z,29.87
2017-07-04T09:52:13.829Z,30.18
2017-07-04T09:53:13.883Z,30.36
2017-07-04T09:54:13.934Z,30.67
2017-07-04T09:55:13.985Z,30.9
2017-07-04T09:56:14.037Z,31.18
2017-07-04T09:57:14.089Z,31.18
2017-07-04T09:58:14.141Z,31.05
2017-07-04T09:59:14.198Z,31.06
2017-07-04T10:00:14.265Z,31.04
2017-07-04T10:01:14.299Z,31.01
2017-07-04T10:02:14.357Z,30.99
2017-07-04T10:03:14.405Z,31.01
2017-07-04T10:04:14.464Z,30.9
2017-07-04T10:05:14.514Z,30.59
2017-07-04T10:06:14.567Z,30.43
2017-07-04T10:07:14.621Z,30.27
2017-07-04T10:08:14.672Z,30.29
2017-07-04T10:09:14.725Z,30.33
2017-07-04T10:10:14.793Z,30.4
2017-07-04T10:11:14.830Z,30.38
2017-07-04T10:12:14.882Z,30.4
2017-07-04T10:13:14.933Z,30.43
2017-07-04T10:14:14.987Z,30.33
2017-07-04T10:15:15.040Z,30.36
2017-07-04T10:16:15.092Z,30.46
2017-07-04T10:17:15.145Z,30.49
2017-07-04T10:18:15.201Z,30.49
2017-07-04T10:19:15.257Z,30.52
2017-07-04T10:20:15.311Z,30.49
2017-07-04T10:21:15.357Z,30.54
2017-07-04T10:22:15.414Z,30.43
2017-07-04T10:23:15.470Z,30.38
2017-07-04T10:24:15.521Z,30.33
2017-07-04T10:25:15.570Z,30.27
2017-07-04T10:26:15.628Z,30.15
2017-07-04T10:27:15.675Z,30.15
2017-07-04T10:28:15.729Z,29.96
2017-07-04T10:29:15.784Z,29.92
2017-07-04T10:30:15.829Z,29.68
2017-07-04T10:31:15.883Z,29.52
2017-07-04T10:32:15.934Z,29.35
2017-07-04T10:33:15.983Z,29.28
2017-07-04T10:34:16.034Z,29.22
2017-07-04T10:35:16.083Z,29.1
2017-07-04T10:36:16.162Z,29.04
2017-07-04T10:37:16.185Z,29
2017-07-04T10:38:16.231Z,28.82
2017-07-04T10:39:16.282Z,28.72
2017-07-04T10:40:16.329Z,28.6
2017-07-04T10:41:16.378Z,28.6
2017-07-04T10:42:16.426Z,28.47
2017-07-04T10:43:16.473Z,28.43
2017-07-04T10:44:16.517Z,28.35
2017-07-04T10:45:16.566Z,28.44
2017-07-04T10:46:16.622Z,28.48
2017-07-04T10:47:16.676Z,28.48
2017-07-04T10:48:16.720Z,28.51
2017-07-04T10:49:16.769Z,28.53
2017-07-04T10:50:16.824Z,28.66
2017-07-04T10:51:16.872Z,28.62
2017-07-04T10:52:16.923Z,28.65
2017-07-04T10:53:16.976Z,28.66
2017-07-04T10:54:17.026Z,28.65
2017-07-04T10:55:17.076Z,28.65
2017-07-04T10:56:17.129Z,28.68
2017-07-04T10:57:17.188Z,28.62
2017-07-04T10:58:17.237Z,28.47
2017-07-04T10:59:17.288Z,28.41
2017-07-04T11:00:17.338Z,28.36
2017-07-04T11:01:17.397Z,28.26
2017-07-04T11:02:17.444Z,28.19
2017-07-04T11:03:17.504Z,28.1
2017-07-04T11:04:17.556Z,28.01
2017-07-04T11:05:17.608Z,27.95
2017-07-04T11:06:17.653Z,27.96
2017-07-04T11:07:18.031Z,27.92
2017-07-04T11:08:17.759Z,27.79
2017-07-04T11:09:17.813Z,27.74
2017-07-04T11:10:17.867Z,27.7
2017-07-04T11:11:17.914Z,27.66
2017-07-04T11:12:17.968Z,27.57
2017-07-04T11:13:18.012Z,27.43
2017-07-04T11:14:18.065Z,27.47
2017-07-04T11:15:18.112Z,27.32
2017-07-04T11:16:18.167Z,27.29
2017-07-04T11:17:18.215Z,27.24
2017-07-04T11:18:18.264Z,27.1
2017-07-04T11:19:18.310Z,27.09
2017-07-04T11:20:18.356Z,27.04
2017-07-04T11:21:18.403Z,27.1
2017-07-04T11:22:18.456Z,27.13
2017-07-04T11:23:18.504Z,27.16
2017-07-04T11:24:18.546Z,27.1
2017-07-04T11:25:18.593Z,27.11
2017-07-04T11:26:18.959Z,27.19
2017-07-04T11:27:18.687Z,27.09
2017-07-04T11:28:18.734Z,27.09
2017-07-04T11:29:18.785Z,27.1
2017-07-04T11:30:18.831Z,27.11
2017-07-04T11:31:18.880Z,27.09
2017-07-04T11:32:18.926Z,27.2
2017-07-04T11:33:18.973Z,27.17
2017-07-04T11:34:19.013Z,27.23
2017-07-04T11:35:19.068Z,27.28
2017-07-04T11:36:19.108Z,27.28
2017-07-04T11:37:19.158Z,27.24
2017-07-04T11:38:19.204Z,27.29
2017-07-04T11:39:19.246Z,27.19
2017-07-04T11:40:19.292Z,27.06
2017-07-04T11:41:19.338Z,27.02
2017-07-04T11:42:19.388Z,26.95
2017-07-04T11:43:19.436Z,26.84
2017-07-04T11:44:19.483Z,26.69
2017-07-04T11:45:19.525Z,26.65
2017-07-04T11:46:19.566Z,26.59
2017-07-04T11:47:19.618Z,26.49
2017-07-04T11:48:19.663Z,26.46
2017-07-04T11:49:19.709Z,26.29
2017-07-04T11:50:19.752Z,26.29
2017-07-04T11:51:19.794Z,26.27
2017-07-04T11:52:19.846Z,26.15
2017-07-04T11:53:19.885Z,26.12
2017-07-04T11:54:19.932Z,26.06
2017-07-04T11:55:20.294Z,26.05
2017-07-04T11:56:20.020Z,25.99
2017-07-04T11:57:20.110Z,25.98
2017-07-04T11:58:20.108Z,25.89
2017-07-04T11:59:20.159Z,25.98
2017-07-04T12:00:20.201Z,25.9
2017-07-04T12:01:20.246Z,25.84
2017-07-04T12:02:20.294Z,25.93
2017-07-04T12:03:20.335Z,25.91
2017-07-04T12:04:20.387Z,26.05
2017-07-04T12:05:20.425Z,26.15
2017-07-04T12:06:20.470Z,26.09
2017-07-04T12:07:20.514Z,26.06
2017-07-04T12:08:20.559Z,26.01
2017-07-04T12:09:20.608Z,26.08
2017-07-04T12:10:20.645Z,26.04
2017-07-04T12:11:20.692Z,26.01
2017-07-04T12:12:20.741Z,26.2
2017-07-04T12:13:21.006Z,26.27
2017-07-04T12:14:20.829Z,26.22
2017-07-04T12:15:20.872Z,26.29
2017-07-04T12:16:20.916Z,26.36
2017-07-04T12:17:20.961Z,26.39
2017-07-04T12:18:21.004Z,26.39
2017-07-04T12:19:21.049Z,26.35
2017-07-04T12:20:21.411Z,26.32
2017-07-04T12:21:21.717Z,26.39
2017-07-04T12:22:21.181Z,26.29
2017-07-04T12:23:21.225Z,26.32
2017-07-04T12:24:21.698Z,26.32
2017-07-04T12:25:21.314Z,26.35
2017-07-04T12:26:21.957Z,26.24
2017-07-04T12:27:21.405Z,26.21
2017-07-04T12:28:22.830Z,26.21
2017-07-04T12:29:21.492Z,26.11
2017-07-04T12:30:22.964Z,26.2
2017-07-04T12:31:22.992Z,26.27
2017-07-04T12:32:23.030Z,26.27
2017-07-04T12:33:23.090Z,26.29
2017-07-04T12:34:22.931Z,26.36
2017-07-04T12:35:22.226Z,26.35
2017-07-04T12:36:21.806Z,26.36
2017-07-04T12:37:21.853Z,26.32
2017-07-04T12:38:21.894Z,26.35
2017-07-04T12:39:21.943Z,26.37
2017-07-04T12:40:21.981Z,26.15
2017-07-04T12:41:22.029Z,26.11
2017-07-04T12:42:22.076Z,26.02
2017-07-04T12:43:22.119Z,25.86
2017-07-04T12:44:22.160Z,25.93
2017-07-04T12:45:22.207Z,25.9
2017-07-04T12:46:22.565Z,25.83
2017-07-04T12:47:22.290Z,25.9
2017-07-04T12:48:22.335Z,25.93
2017-07-04T12:49:22.383Z,25.97
2017-07-04T12:50:22.428Z,25.84
2017-07-04T12:51:22.466Z,25.89
2017-07-04T12:52:22.518Z,25.86
2017-07-04T12:53:22.557Z,25.93
2017-07-04T12:54:22.600Z,25.9
2017-07-04T12:55:22.649Z,25.93
2017-07-04T12:56:22.693Z,25.84